UAE22 YMML-YSSY
Flight info
| Callsign | UAE22 |
|---|---|
| Flight time | N/A |
| Altitude | 39000 |
| Route | DOSEL2/34 DOSEL Y59 RIVET |
| Aircraft | B77W/H-SDE1E2E3FGHIJ2J3J4J5M1RWXY/LB1D1 |
Departure
| Time | N/A |
|---|---|
| Airport | Melbourne Airport (YMML) |
Arrival
| Time | 2026-05-01 09:09 |
|---|---|
| Airport | Sydney Kingsford Smith International Airport (YSSY) |
| Time | Latitude | Longitude | Altitude | Speed | Heading |
|---|---|---|---|---|---|
| 2026-05-01 08:23 | -36.16169 | 147.10474 | 37298 ft | 492 kts | 51° |
| 2026-05-01 08:23 | -36.12072 | 147.17274 | 37589 ft | 494 kts | 51° |
| 2026-05-01 08:23 | -36.10025 | 147.20669 | 38031 ft | 491 kts | 51° |
| 2026-05-01 08:24 | -36.07990 | 147.24044 | 38489 ft | 488 kts | 51° |
| 2026-05-01 08:24 | -36.05963 | 147.27401 | 38896 ft | 486 kts | 51° |
| 2026-05-01 08:24 | -36.03943 | 147.30743 | 39162 ft | 486 kts | 51° |
| 2026-05-01 08:25 | -35.99869 | 147.37471 | 39273 ft | 492 kts | 51° |
| 2026-05-01 08:25 | -35.95788 | 147.44201 | 39293 ft | 486 kts | 51° |
| 2026-05-01 08:26 | -35.91760 | 147.50833 | 39302 ft | 482 kts | 51° |
| 2026-05-01 08:26 | -35.87741 | 147.57435 | 39313 ft | 481 kts | 51° |
| 2026-05-01 08:27 | -35.83752 | 147.63975 | 39311 ft | 481 kts | 51° |
| 2026-05-01 08:27 | -35.79724 | 147.70558 | 39316 ft | 482 kts | 51° |
| 2026-05-01 08:28 | -35.75683 | 147.77149 | 39322 ft | 483 kts | 51° |
| 2026-05-01 08:28 | -35.71624 | 147.83762 | 39321 ft | 484 kts | 51° |
| 2026-05-01 08:29 | -35.67555 | 147.90378 | 39325 ft | 486 kts | 51° |
| 2026-05-01 08:29 | -35.63473 | 147.97006 | 39330 ft | 487 kts | 51° |
| 2026-05-01 08:30 | -35.59380 | 148.03639 | 39328 ft | 488 kts | 50° |
| 2026-05-01 08:30 | -35.55272 | 148.10282 | 39331 ft | 488 kts | 50° |
| 2026-05-01 08:31 | -35.51160 | 148.16920 | 39333 ft | 488 kts | 50° |
| 2026-05-01 08:31 | -35.47043 | 148.23554 | 39333 ft | 489 kts | 50° |
| 2026-05-01 08:32 | -35.42920 | 148.30186 | 39355 ft | 488 kts | 50° |
| 2026-05-01 08:32 | -35.40872 | 148.33471 | 39221 ft | 482 kts | 50° |
| 2026-05-01 08:32 | -35.38838 | 148.36725 | 38864 ft | 482 kts | 50° |
| 2026-05-01 08:32 | -35.36789 | 148.39999 | 38365 ft | 486 kts | 50° |
| 2026-05-01 08:33 | -35.34728 | 148.43288 | 37922 ft | 488 kts | 50° |
| 2026-05-01 08:33 | -35.32654 | 148.46595 | 37493 ft | 490 kts | 50° |
| 2026-05-01 08:33 | -35.30575 | 148.49911 | 37107 ft | 491 kts | 50° |
| 2026-05-01 08:33 | -35.28495 | 148.53228 | 36801 ft | 490 kts | 50° |
| 2026-05-01 08:34 | -35.26430 | 148.56517 | 36592 ft | 487 kts | 50° |
| 2026-05-01 08:34 | -35.24372 | 148.59793 | 36398 ft | 484 kts | 50° |
| 2026-05-01 08:34 | -35.22325 | 148.63047 | 36174 ft | 481 kts | 50° |
| 2026-05-01 08:34 | -35.20288 | 148.66281 | 35927 ft | 480 kts | 50° |
| 2026-05-01 08:35 | -35.18249 | 148.69515 | 35569 ft | 481 kts | 50° |
| 2026-05-01 08:35 | -35.16195 | 148.72770 | 35023 ft | 486 kts | 50° |
| 2026-05-01 08:35 | -35.14122 | 148.76050 | 34572 ft | 488 kts | 50° |
| 2026-05-01 08:35 | -35.12056 | 148.79319 | 34127 ft | 483 kts | 50° |
| 2026-05-01 08:36 | -35.10011 | 148.82555 | 33704 ft | 480 kts | 50° |
| 2026-05-01 08:36 | -35.07976 | 148.85769 | 33415 ft | 477 kts | 50° |
| 2026-05-01 08:36 | -35.05958 | 148.88955 | 33171 ft | 472 kts | 50° |
| 2026-05-01 08:36 | -35.03959 | 148.92106 | 32913 ft | 468 kts | 50° |
| 2026-05-01 08:37 | -35.01968 | 148.95241 | 32623 ft | 465 kts | 50° |
| 2026-05-01 08:37 | -34.99992 | 148.98350 | 32327 ft | 462 kts | 50° |
| 2026-05-01 08:37 | -34.98029 | 149.01436 | 32043 ft | 459 kts | 50° |
| 2026-05-01 08:37 | -34.96080 | 149.04498 | 31657 ft | 455 kts | 50° |
| 2026-05-01 08:38 | -34.94182 | 149.07480 | 31124 ft | 436 kts | 49° |
| 2026-05-01 08:38 | -34.92363 | 149.10338 | 30642 ft | 417 kts | 49° |
| 2026-05-01 08:38 | -34.90622 | 149.13070 | 30109 ft | 399 kts | 49° |
| 2026-05-01 08:38 | -34.88952 | 149.15686 | 29544 ft | 384 kts | 49° |
| 2026-05-01 08:39 | -34.87339 | 149.18208 | 29003 ft | 372 kts | 49° |
| 2026-05-01 08:39 | -34.85732 | 149.20713 | 28557 ft | 380 kts | 49° |
| 2026-05-01 08:39 | -34.84089 | 149.23273 | 28090 ft | 386 kts | 49° |
| 2026-05-01 08:39 | -34.82435 | 149.25851 | 27617 ft | 387 kts | 49° |
| 2026-05-01 08:40 | -34.79135 | 149.31002 | 26680 ft | 385 kts | 49° |
| 2026-05-01 08:40 | -34.77488 | 149.33569 | 26223 ft | 384 kts | 49° |
| 2026-05-01 08:40 | -34.75847 | 149.36124 | 25769 ft | 383 kts | 49° |
| 2026-05-01 08:41 | -34.74242 | 149.38704 | 25440 ft | 380 kts | 53° |
| 2026-05-01 08:41 | -34.72891 | 149.41416 | 25357 ft | 370 kts | 59° |
| 2026-05-01 08:41 | -34.71695 | 149.44173 | 25365 ft | 368 kts | 60° |
| 2026-05-01 08:41 | -34.70509 | 149.46926 | 25356 ft | 368 kts | 60° |
| 2026-05-01 08:42 | -34.69323 | 149.49677 | 25364 ft | 368 kts | 60° |
| 2026-05-01 08:42 | -34.68132 | 149.52426 | 25365 ft | 368 kts | 59° |
| 2026-05-01 08:42 | -34.66938 | 149.55175 | 25363 ft | 368 kts | 59° |
| 2026-05-01 08:42 | -34.66144 | 149.56995 | 25369 ft | 368 kts | 59° |
| 2026-05-01 08:43 | -34.64943 | 149.59747 | 25368 ft | 368 kts | 59° |
| 2026-05-01 08:43 | -34.63741 | 149.62495 | 25366 ft | 369 kts | 59° |
| 2026-05-01 08:43 | -34.62147 | 149.66136 | 25364 ft | 369 kts | 59° |
| 2026-05-01 08:43 | -34.60942 | 149.68885 | 25366 ft | 369 kts | 59° |
| 2026-05-01 08:44 | -34.60127 | 149.70742 | 25367 ft | 369 kts | 59° |
| 2026-05-01 08:44 | -34.58530 | 149.74380 | 25367 ft | 369 kts | 59° |
| 2026-05-01 08:44 | -34.57325 | 149.77122 | 25371 ft | 369 kts | 59° |
| 2026-05-01 08:44 | -34.56508 | 149.78979 | 25367 ft | 369 kts | 59° |
| 2026-05-01 08:45 | -34.55319 | 149.81684 | 25370 ft | 368 kts | 59° |
| 2026-05-01 08:45 | -34.54096 | 149.84461 | 25371 ft | 369 kts | 59° |
| 2026-05-01 08:45 | -34.52890 | 149.87200 | 25369 ft | 369 kts | 59° |
| 2026-05-01 08:45 | -34.51680 | 149.89942 | 25369 ft | 368 kts | 59° |
| 2026-05-01 08:46 | -34.50471 | 149.92682 | 25380 ft | 368 kts | 59° |
| 2026-05-01 08:46 | -34.49279 | 149.95380 | 25375 ft | 368 kts | 59° |
| 2026-05-01 08:46 | -34.48052 | 149.98152 | 25376 ft | 368 kts | 59° |
| 2026-05-01 08:46 | -34.46843 | 150.00883 | 25375 ft | 368 kts | 59° |
| 2026-05-01 08:47 | -34.45647 | 150.03584 | 25376 ft | 368 kts | 59° |
| 2026-05-01 08:47 | -34.44436 | 150.06316 | 25378 ft | 368 kts | 59° |
| 2026-05-01 08:47 | -34.43226 | 150.09047 | 25378 ft | 368 kts | 59° |
| 2026-05-01 08:47 | -34.42014 | 150.11778 | 25377 ft | 368 kts | 59° |
| 2026-05-01 08:48 | -34.40792 | 150.14528 | 25092 ft | 374 kts | 60° |
| 2026-05-01 08:48 | -34.39555 | 150.17312 | 24690 ft | 375 kts | 60° |
| 2026-05-01 08:48 | -34.38320 | 150.20089 | 24317 ft | 374 kts | 60° |
| 2026-05-01 08:48 | -34.37090 | 150.22855 | 23931 ft | 372 kts | 60° |
| 2026-05-01 08:49 | -34.35864 | 150.25609 | 23462 ft | 370 kts | 60° |
| 2026-05-01 08:49 | -34.34666 | 150.28300 | 22868 ft | 357 kts | 60° |
| 2026-05-01 08:49 | -34.33505 | 150.30904 | 22272 ft | 345 kts | 60° |
| 2026-05-01 08:49 | -34.32378 | 150.33430 | 21706 ft | 338 kts | 60° |
| 2026-05-01 08:50 | -34.31261 | 150.35931 | 21163 ft | 339 kts | 60° |
| 2026-05-01 08:50 | -34.30132 | 150.38455 | 20552 ft | 343 kts | 60° |
| 2026-05-01 08:50 | -34.28993 | 150.40999 | 19942 ft | 343 kts | 60° |
| 2026-05-01 08:50 | -34.27866 | 150.43518 | 19339 ft | 339 kts | 60° |
| 2026-05-01 08:51 | -34.26749 | 150.46012 | 18744 ft | 335 kts | 61° |
| 2026-05-01 08:51 | -34.25646 | 150.48476 | 18076 ft | 331 kts | 60° |
| 2026-05-01 08:51 | -34.24557 | 150.50910 | 17405 ft | 327 kts | 60° |
| 2026-05-01 08:51 | -34.23481 | 150.53312 | 16750 ft | 322 kts | 60° |
| 2026-05-01 08:52 | -34.22423 | 150.55672 | 16096 ft | 317 kts | 60° |
| 2026-05-01 08:52 | -34.21384 | 150.57990 | 15477 ft | 311 kts | 60° |
| 2026-05-01 08:52 | -34.20362 | 150.60268 | 14856 ft | 306 kts | 60° |
| 2026-05-01 08:52 | -34.19353 | 150.62514 | 14256 ft | 302 kts | 60° |
| 2026-05-01 08:53 | -34.18356 | 150.64729 | 13584 ft | 298 kts | 60° |
| 2026-05-01 08:53 | -34.17373 | 150.66916 | 12921 ft | 295 kts | 60° |
| 2026-05-01 08:53 | -34.16399 | 150.69081 | 12281 ft | 292 kts | 60° |
| 2026-05-01 08:53 | -34.15432 | 150.71229 | 11637 ft | 290 kts | 60° |
| 2026-05-01 08:54 | -34.14475 | 150.73353 | 11034 ft | 287 kts | 60° |
| 2026-05-01 08:54 | -34.13524 | 150.75464 | 10419 ft | 285 kts | 60° |
| 2026-05-01 08:54 | -34.12578 | 150.77564 | 9759 ft | 283 kts | 60° |
| 2026-05-01 08:54 | -34.11640 | 150.79644 | 9104 ft | 281 kts | 60° |
| 2026-05-01 08:55 | -34.10708 | 150.81708 | 8456 ft | 279 kts | 60° |
| 2026-05-01 08:55 | -34.09783 | 150.83757 | 7810 ft | 277 kts | 60° |
| 2026-05-01 08:55 | -34.08869 | 150.85789 | 7184 ft | 274 kts | 60° |
| 2026-05-01 08:55 | -34.07971 | 150.87787 | 6620 ft | 267 kts | 60° |
| 2026-05-01 08:56 | -34.07093 | 150.89736 | 6435 ft | 267 kts | 60° |
| 2026-05-01 08:56 | -34.06191 | 150.91739 | 6317 ft | 273 kts | 60° |
| 2026-05-01 08:56 | -34.05293 | 150.93733 | 6287 ft | 267 kts | 60° |
| 2026-05-01 08:56 | -34.04414 | 150.95679 | 6275 ft | 263 kts | 60° |
| 2026-05-01 08:57 | -34.03555 | 150.97589 | 6272 ft | 261 kts | 63° |
| 2026-05-01 08:57 | -34.03097 | 150.99692 | 6271 ft | 263 kts | 90° |
| 2026-05-01 08:57 | -34.03551 | 151.01834 | 6293 ft | 270 kts | 116° |
| 2026-05-01 08:57 | -34.04702 | 151.03636 | 6297 ft | 269 kts | 132° |
| 2026-05-01 08:58 | -34.05984 | 151.05226 | 6230 ft | 261 kts | 132° |
| 2026-05-01 08:58 | -34.07234 | 151.06786 | 5850 ft | 255 kts | 133° |
| 2026-05-01 08:58 | -34.08705 | 151.07932 | 5402 ft | 254 kts | 161° |
| 2026-05-01 08:58 | -34.10426 | 151.08385 | 4979 ft | 253 kts | 167° |
| 2026-05-01 08:59 | -34.12152 | 151.08817 | 4503 ft | 253 kts | 166° |
| 2026-05-01 08:59 | -34.13877 | 151.09257 | 4042 ft | 252 kts | 166° |
| 2026-05-01 08:59 | -34.15586 | 151.09696 | 3569 ft | 250 kts | 166° |
| 2026-05-01 08:59 | -34.17233 | 151.10120 | 3582 ft | 239 kts | 165° |
| 2026-05-01 09:00 | -34.18904 | 151.10554 | 3541 ft | 250 kts | 165° |
| 2026-05-01 09:00 | -34.20609 | 151.11023 | 3419 ft | 251 kts | 164° |
| 2026-05-01 09:00 | -34.22291 | 151.11532 | 3363 ft | 248 kts | 163° |
| 2026-05-01 09:00 | -34.23962 | 151.12052 | 3307 ft | 248 kts | 162° |
| 2026-05-01 09:01 | -34.25628 | 151.12575 | 3301 ft | 248 kts | 162° |
| 2026-05-01 09:01 | -34.27266 | 151.13193 | 3288 ft | 243 kts | 149° |
| 2026-05-01 09:01 | -34.28432 | 151.14473 | 3282 ft | 218 kts | 115° |
| 2026-05-01 09:01 | -34.28760 | 151.16149 | 3284 ft | 200 kts | 82° |
| 2026-05-01 09:02 | -34.28503 | 151.17775 | 3307 ft | 197 kts | 73° |
| 2026-05-01 09:02 | -34.27902 | 151.19245 | 3275 ft | 197 kts | 43° |
| 2026-05-01 09:02 | -34.26715 | 151.20020 | 3309 ft | 197 kts | 17° |
| 2026-05-01 09:02 | -34.25361 | 151.20409 | 3307 ft | 202 kts | 14° |
| 2026-05-01 09:03 | -34.23979 | 151.20756 | 3303 ft | 204 kts | 13° |
| 2026-05-01 09:03 | -34.22596 | 151.21099 | 3290 ft | 201 kts | 13° |
| 2026-05-01 09:03 | -34.21234 | 151.21430 | 3280 ft | 199 kts | 13° |
| 2026-05-01 09:03 | -34.19878 | 151.21751 | 3281 ft | 199 kts | 13° |
| 2026-05-01 09:04 | -34.18520 | 151.22069 | 3278 ft | 199 kts | 13° |
| 2026-05-01 09:04 | -34.17163 | 151.22385 | 3280 ft | 198 kts | 13° |
| 2026-05-01 09:04 | -34.15826 | 151.22695 | 3283 ft | 199 kts | 13° |
| 2026-05-01 09:04 | -34.14432 | 151.22802 | 3261 ft | 201 kts | 353° |
| 2026-05-01 09:05 | -34.13076 | 151.22410 | 3297 ft | 201 kts | 349° |
| 2026-05-01 09:05 | -34.11760 | 151.22006 | 3295 ft | 190 kts | 349° |
| 2026-05-01 09:05 | -34.10520 | 151.21672 | 3278 ft | 174 kts | 354° |
| 2026-05-01 09:05 | -34.09378 | 151.21424 | 3183 ft | 162 kts | 353° |
| 2026-05-01 09:06 | -34.08270 | 151.21104 | 2721 ft | 165 kts | 348° |
| 2026-05-01 09:06 | -34.07211 | 151.20732 | 2320 ft | 157 kts | 351° |
| 2026-05-01 09:06 | -34.06146 | 151.20534 | 1778 ft | 149 kts | 0° |
| 2026-05-01 09:06 | -34.05099 | 151.20426 | 1445 ft | 152 kts | 353° |
| 2026-05-01 09:07 | -34.04082 | 151.20085 | 1377 ft | 151 kts | 348° |
| 2026-05-01 09:07 | -34.03068 | 151.19748 | 1286 ft | 155 kts | 351° |
| 2026-05-01 09:07 | -34.02008 | 151.19485 | 1063 ft | 154 kts | 353° |
| 2026-05-01 09:07 | -34.00967 | 151.19245 | 851 ft | 152 kts | 352° |
| 2026-05-01 09:08 | -33.99946 | 151.18961 | 707 ft | 148 kts | 349° |
| 2026-05-01 09:08 | -33.98922 | 151.18693 | 614 ft | 153 kts | 353° |
| 2026-05-01 09:08 | -33.97855 | 151.18436 | 339 ft | 158 kts | 351° |
| 2026-05-01 09:08 | -33.96791 | 151.18154 | 114 ft | 154 kts | 351° |
| 2026-05-01 09:09 | -33.95781 | 151.17896 | 27 ft | 137 kts | 348° |
| 2026-05-01 09:09 | -33.94957 | 151.17683 | 26 ft | 104 kts | 349° |
| 2026-05-01 09:09 | -33.94553 | 151.17574 | 29 ft | 43 kts | 347° |
| 2026-05-01 09:09 | -33.94260 | 151.17497 | 30 ft | 39 kts | 347° |
| 2026-05-01 09:10 | -33.94037 | 151.17441 | 24 ft | 20 kts | 350° |
| 2026-05-01 09:10 | -33.93949 | 151.17400 | 25 ft | 11 kts | 311° |
| 2026-05-01 09:10 | -33.93952 | 151.17324 | 25 ft | 1 kts | 254° |
| 2026-05-01 09:10 | -33.93952 | 151.17322 | 26 ft | 0 kts | 255° |
| 2026-05-01 09:12 | -33.93954 | 151.17311 | 25 ft | 8 kts | 255° |
| 2026-05-01 09:12 | -33.93980 | 151.17185 | 27 ft | 18 kts | 256° |
| 2026-05-01 09:13 | -33.94012 | 151.17044 | 30 ft | 16 kts | 253° |
| 2026-05-01 09:13 | -33.94045 | 151.16913 | 29 ft | 16 kts | 253° |
| 2026-05-01 09:13 | -33.94049 | 151.16825 | 29 ft | 7 kts | 308° |
| 2026-05-01 09:13 | -33.94004 | 151.16798 | 30 ft | 7 kts | 353° |
| 2026-05-01 09:14 | -33.93968 | 151.16838 | 31 ft | 8 kts | 71° |
| 2026-05-01 09:14 | -33.93959 | 151.16874 | 28 ft | 0 kts | 75° |
| 2026-05-01 09:14 | -33.93958 | 151.16880 | 28 ft | 1 kts | 73° |
| 2026-05-01 09:14 | -33.93955 | 151.16892 | 28 ft | 2 kts | 74° |
| 2026-05-01 09:15 | -33.93955 | 151.16894 | 28 ft | 0 kts | 73° |